Time;durP1;ratioP1;P1;durP2;ratioP2;P2;SDS_P1;SDS_P2;PMS_P1;PMS_P2;Temp;Humidity;BMP_temperature;BMP_pressure;BME280_temperature;BME280_humidity;BME280_pressure;Samples;Min_cycle;Max_cycle;Signal;HPM_P1;HPM_P2
2023/12/08 00:02:07;;;;;;;29.50;20.05;;;3.00;99.90;;;;;;5072968;28;20525;-78
2023/12/08 00:04:34;;;;;;;27.23;18.95;;;3.00;99.90;;;;;;5067744;28;20036;-79
2023/12/08 00:07:00;;;;;;;28.33;19.60;;;3.00;99.90;;;;;;5069644;28;20040;-79
2023/12/08 00:09:27;;;;;;;28.80;19.63;;;3.00;99.90;;;;;;5075424;28;20463;-79
2023/12/08 00:11:53;;;;;;;28.45;19.70;;;3.00;99.90;;;;;;5069260;28;20043;-77
2023/12/08 00:14:19;;;;;;;31.20;20.20;;;3.00;99.90;;;;;;5092619;28;20031;-77
2023/12/08 00:16:46;;;;;;;34.22;20.98;;;3.00;99.90;;;;;;5110645;27;20047;-78
2023/12/08 00:19:12;;;;;;;27.67;18.65;;;3.00;99.90;;;;;;5092359;28;20028;-76
2023/12/08 00:21:39;;;;;;;28.42;18.88;;;3.00;99.90;;;;;;5076041;28;20048;-76
2023/12/08 00:24:05;;;;;;;24.85;18.15;;;3.00;99.90;;;;;;5071909;28;20036;-79
2023/12/08 00:26:31;;;;;;;27.65;18.20;;;3.00;99.90;;;;;;5076090;28;20046;-77
2023/12/08 00:28:58;;;;;;;28.33;19.35;;;3.00;99.90;;;;;;5073267;27;20509;-76
2023/12/08 00:31:24;;;;;;;27.80;18.58;;;3.00;99.90;;;;;;5075846;28;20046;-78
2023/12/08 00:33:51;;;;;;;30.45;20.55;;;3.00;99.90;;;;;;5077768;28;20039;-77
2023/12/08 00:36:17;;;;;;;31.57;21.73;;;3.00;99.90;;;;;;5109284;27;20776;-75
2023/12/08 00:38:44;;;;;;;29.50;19.02;;;3.00;99.90;;;;;;5059444;28;20537;-78
2023/12/08 00:41:11;;;;;;;27.63;18.98;;;3.00;99.90;;;;;;5071294;28;20024;-76
2023/12/08 00:43:37;;;;;;;27.23;18.67;;;3.00;99.90;;;;;;5108520;27;20035;-77
2023/12/08 00:46:04;;;;;;;25.55;17.23;;;2.90;99.90;;;;;;5077378;28;20150;-76
2023/12/08 00:48:30;;;;;;;26.67;18.15;;;3.00;99.90;;;;;;5071198;28;20040;-76
2023/12/08 00:50:57;;;;;;;25.98;17.90;;;2.90;99.90;;;;;;5079952;28;20395;-75
2023/12/08 00:53:23;;;;;;;27.40;18.35;;;2.90;99.90;;;;;;5070889;28;20402;-75
2023/12/08 00:55:49;;;;;;;28.67;19.45;;;2.80;99.90;;;;;;5069831;28;20391;-75
2023/12/08 00:58:16;;;;;;;29.00;18.92;;;2.80;99.90;;;;;;5079076;28;20023;-77
2023/12/08 01:00:46;;;;;;;29.73;20.37;;;2.80;99.90;;;;;;5086690;28;20038;-76
2023/12/08 01:03:12;;;;;;;25.90;18.02;;;2.80;99.90;;;;;;5094618;28;20505;-78
2023/12/08 01:05:39;;;;;;;29.60;19.10;;;2.80;99.90;;;;;;5102985;28;20038;-77
2023/12/08 01:08:05;;;;;;;25.98;17.27;;;2.80;99.90;;;;;;5088060;28;20537;-76
2023/12/08 01:10:31;;;;;;;30.98;19.10;;;2.80;99.90;;;;;;5071301;28;20035;-77
2023/12/08 01:12:58;;;;;;;28.87;19.37;;;2.70;99.90;;;;;;5093695;28;20482;-76
2023/12/08 01:15:24;;;;;;;28.38;19.85;;;2.80;99.90;;;;;;5068633;28;20075;-76
2023/12/08 01:17:50;;;;;;;26.58;19.05;;;2.80;99.90;;;;;;5092227;28;20044;-76
2023/12/08 01:20:17;;;;;;;26.98;18.30;;;2.80;99.90;;;;;;5069834;28;20039;-76
2023/12/08 01:22:43;;;;;;;26.58;18.83;;;2.80;99.90;;;;;;5081332;28;20039;-77
2023/12/08 01:25:09;;;;;;;29.53;18.47;;;2.80;99.90;;;;;;5075845;28;20040;-76
2023/12/08 01:27:36;;;;;;;25.23;17.17;;;2.80;99.90;;;;;;5070380;28;20062;-77
2023/12/08 01:30:03;;;;;;;27.80;17.98;;;2.80;99.90;;;;;;5079350;28;20043;-78
2023/12/08 01:32:29;;;;;;;28.00;17.17;;;2.80;99.90;;;;;;5076243;28;20036;-75
2023/12/08 01:34:56;;;;;;;25.55;16.48;;;2.80;99.90;;;;;;5074159;28;20055;-75
2023/12/08 01:37:23;;;;;;;26.30;18.17;;;2.80;99.90;;;;;;5091782;28;20036;-76
2023/12/08 01:39:49;;;;;;;24.52;17.08;;;2.80;99.90;;;;;;5107524;27;20032;-75
2023/12/08 01:42:15;;;;;;;26.17;17.15;;;2.80;99.90;;;;;;5093549;27;20402;-76
2023/12/08 01:44:42;;;;;;;28.40;17.90;;;2.80;99.90;;;;;;5075601;28;20097;-76
2023/12/08 01:47:08;;;;;;;25.67;17.30;;;2.80;99.90;;;;;;5081197;28;20039;-75
2023/12/08 01:49:36;;;;;;;24.00;17.35;;;2.80;99.90;;;;;;5070300;28;20094;-78
2023/12/08 01:52:02;;;;;;;23.88;16.63;;;2.80;99.90;;;;;;5098168;28;20039;-75
2023/12/08 01:54:30;;;;;;;28.38;18.67;;;2.80;99.90;;;;;;5075304;28;20497;-77
2023/12/08 01:56:56;;;;;;;25.77;17.67;;;2.80;99.90;;;;;;5081460;28;20030;-77
2023/12/08 01:59:23;;;;;;;22.38;16.05;;;2.80;99.90;;;;;;5069472;28;20501;-76
2023/12/08 02:01:49;;;;;;;25.48;17.20;;;2.80;99.90;;;;;;5071674;28;20513;-77
2023/12/08 02:04:15;;;;;;;26.05;18.48;;;2.80;99.90;;;;;;5098664;27;20521;-76
2023/12/08 02:06:42;;;;;;;27.77;17.95;;;2.80;99.90;;;;;;5074771;28;20374;-76
2023/12/08 02:09:09;;;;;;;29.60;20.05;;;2.80;99.90;;;;;;5075800;28;20032;-75
2023/12/08 02:11:36;;;;;;;26.48;17.15;;;2.80;99.90;;;;;;5057353;28;20479;-75
2023/12/08 02:14:03;;;;;;;24.33;17.13;;;2.80;99.90;;;;;;5061096;28;20043;-78
2023/12/08 02:16:32;;;;;;;27.90;17.90;;;2.80;99.90;;;;;;5072424;28;20031;-75
2023/12/08 02:18:59;;;;;;;23.48;16.88;;;2.80;99.90;;;;;;5070603;28;20444;-76
2023/12/08 02:21:27;;;;;;;24.02;17.10;;;2.80;99.90;;;;;;5076352;28;20130;-75
2023/12/08 02:23:53;;;;;;;23.55;15.98;;;2.90;99.90;;;;;;5075467;28;20036;-77
2023/12/08 02:26:20;;;;;;;22.90;16.92;;;2.90;99.90;;;;;;5090967;28;20036;-76
2023/12/08 02:28:47;;;;;;;21.90;15.73;;;2.90;99.90;;;;;;5091917;28;20036;-75
2023/12/08 02:31:19;;;;;;;24.35;16.70;;;2.90;99.90;;;;;;5069030;28;20399;-75
2023/12/08 02:33:48;;;;;;;24.52;16.98;;;2.90;99.90;;;;;;5108093;27;20473;-76
2023/12/08 02:36:17;;;;;;;27.48;18.27;;;2.90;99.90;;;;;;5071998;28;20058;-75
2023/12/08 02:38:46;;;;;;;25.02;17.38;;;2.90;99.90;;;;;;5072110;28;20035;-74
2023/12/08 02:41:12;;;;;;;27.07;19.33;;;2.90;99.90;;;;;;5076336;28;20438;-75
2023/12/08 02:43:38;;;;;;;28.27;18.70;;;2.90;99.90;;;;;;5071802;28;20035;-76
2023/12/08 02:46:06;;;;;;;26.88;19.02;;;2.90;99.90;;;;;;5076600;28;20368;-76
2023/12/08 02:48:32;;;;;;;30.67;20.00;;;2.90;99.90;;;;;;5093814;28;20043;-75
2023/12/08 02:50:58;;;;;;;26.35;18.50;;;2.80;99.90;;;;;;5079895;28;20046;-75
2023/12/08 02:53:25;;;;;;;26.63;18.42;;;2.90;99.90;;;;;;5073886;28;20035;-76
2023/12/08 02:55:51;;;;;;;21.63;15.43;;;2.90;99.90;;;;;;5073147;28;20557;-77
2023/12/08 02:58:17;;;;;;;26.77;17.40;;;2.90;99.90;;;;;;5076575;28;20036;-77
2023/12/08 03:00:43;;;;;;;26.08;17.23;;;2.80;99.90;;;;;;5072891;28;20051;-74
2023/12/08 03:03:10;;;;;;;27.52;17.85;;;2.80;99.90;;;;;;5077411;28;20048;-75
2023/12/08 03:05:36;;;;;;;28.92;18.50;;;2.70;99.90;;;;;;5070158;28;20394;-75
2023/12/08 03:08:02;;;;;;;28.38;18.52;;;2.80;99.90;;;;;;5091358;28;20047;-74
2023/12/08 03:10:28;;;;;;;29.08;18.70;;;2.70;99.90;;;;;;5073259;28;20040;-75
2023/12/08 03:12:55;;;;;;;28.80;18.65;;;2.70;99.90;;;;;;5088544;28;20289;-75
2023/12/08 03:15:23;;;;;;;29.02;18.98;;;2.70;99.90;;;;;;5074320;28;20036;-75
2023/12/08 03:17:49;;;;;;;32.17;20.70;;;2.60;99.90;;;;;;5067494;28;20297;-76
2023/12/08 03:20:15;;;;;;;33.72;20.85;;;2.60;99.90;;;;;;5069175;28;20043;-75
2023/12/08 03:22:42;;;;;;;30.35;18.35;;;2.60;99.90;;;;;;5074676;28;20027;-74
2023/12/08 03:25:08;;;;;;;31.83;21.13;;;2.60;99.90;;;;;;5071957;28;20181;-74
2023/12/08 03:27:34;;;;;;;30.90;19.77;;;2.60;99.90;;;;;;5059449;28;20038;-75
2023/12/08 03:30:01;;;;;;;27.70;18.45;;;2.60;99.90;;;;;;5071632;28;20051;-75
2023/12/08 03:32:27;;;;;;;32.60;19.88;;;2.50;99.90;;;;;;5078453;28;20038;-75
2023/12/08 03:34:53;;;;;;;29.58;18.92;;;2.50;99.90;;;;;;5076436;28;20036;-75
2023/12/08 03:37:20;;;;;;;29.65;18.67;;;2.50;99.90;;;;;;5059247;28;20043;-76
2023/12/08 03:39:46;;;;;;;31.42;20.23;;;2.50;99.90;;;;;;5094182;28;20032;-75
2023/12/08 03:42:12;;;;;;;29.33;19.42;;;2.50;99.90;;;;;;5067494;28;20383;-75
2023/12/08 03:44:39;;;;;;;29.35;19.40;;;2.50;99.90;;;;;;5077243;28;20039;-75
2023/12/08 03:47:05;;;;;;;32.15;20.52;;;2.50;99.90;;;;;;5076413;28;20038;-76
2023/12/08 03:49:31;;;;;;;29.33;18.15;;;2.50;99.90;;;;;;5080995;28;20036;-75
2023/12/08 03:51:57;;;;;;;28.60;18.10;;;2.50;99.90;;;;;;5096794;28;20396;-74
2023/12/08 03:54:24;;;;;;;35.92;22.10;;;2.50;99.90;;;;;;5094250;28;20036;-76
2023/12/08 03:56:50;;;;;;;34.28;21.60;;;2.50;99.90;;;;;;5078144;28;20494;-76
2023/12/08 03:59:16;;;;;;;33.55;21.77;;;2.50;99.90;;;;;;5109637;27;20463;-75
2023/12/08 04:01:43;;;;;;;38.45;22.50;;;2.50;99.90;;;;;;5078625;28;20075;-76
2023/12/08 04:04:11;;;;;;;37.63;22.60;;;2.50;99.90;;;;;;5074045;28;20027;-76
2023/12/08 04:06:37;;;;;;;35.15;21.38;;;2.50;99.90;;;;;;5076698;28;20036;-77
2023/12/08 04:09:03;;;;;;;35.95;22.27;;;2.50;99.90;;;;;;5082486;28;20486;-75
2023/12/08 04:11:29;;;;;;;33.90;20.92;;;2.50;99.90;;;;;;5079339;28;20043;-75
2023/12/08 04:13:56;;;;;;;35.10;21.77;;;2.50;99.90;;;;;;5095849;28;20046;-76
2023/12/08 04:16:22;;;;;;;33.28;21.48;;;2.50;99.90;;;;;;5088681;28;20410;-74
2023/12/08 04:18:49;;;;;;;38.78;21.95;;;2.50;99.90;;;;;;5096923;28;20036;-76
2023/12/08 04:21:18;;;;;;;40.00;22.48;;;2.50;99.90;;;;;;5080823;28;20038;-76
2023/12/08 04:23:45;;;;;;;39.63;22.80;;;2.50;99.90;;;;;;5094340;27;20060;-75
2023/12/08 04:26:11;;;;;;;34.95;22.30;;;2.50;99.90;;;;;;5061999;28;20508;-75
2023/12/08 04:28:39;;;;;;;36.05;20.73;;;2.50;99.90;;;;;;5058340;28;20501;-76
2023/12/08 04:31:05;;;;;;;42.28;24.88;;;2.50;99.90;;;;;;5070361;28;20066;-76
2023/12/08 04:33:32;;;;;;;39.60;24.27;;;2.60;99.90;;;;;;5075048;28;20402;-76
2023/12/08 04:35:58;;;;;;;38.72;24.15;;;2.50;99.90;;;;;;5082836;28;20032;-77
2023/12/08 04:38:24;;;;;;;37.83;21.58;;;2.50;99.90;;;;;;5054503;28;20036;-76
2023/12/08 04:40:50;;;;;;;40.67;23.60;;;2.60;99.90;;;;;;5083347;27;20042;-77
2023/12/08 04:43:17;;;;;;;41.23;24.00;;;2.60;99.90;;;;;;5075529;28;20039;-77
2023/12/08 04:45:43;;;;;;;42.75;24.38;;;2.60;99.90;;;;;;5075171;28;20040;-77
2023/12/08 04:48:10;;;;;;;47.30;25.57;;;2.60;99.90;;;;;;5054573;28;20505;-77
2023/12/08 04:50:36;;;;;;;41.10;24.42;;;2.60;99.90;;;;;;5072912;28;20402;-75
2023/12/08 04:53:02;;;;;;;40.63;23.50;;;2.60;99.90;;;;;;5071280;28;20549;-76
2023/12/08 04:55:28;;;;;;;39.35;22.42;;;2.60;99.90;;;;;;5091900;28;20040;-77
2023/12/08 04:57:55;;;;;;;45.50;23.90;;;2.60;99.90;;;;;;5078415;28;20027;-76
2023/12/08 05:00:21;;;;;;;44.22;24.20;;;2.60;99.90;;;;;;5076281;28;20040;-77
2023/12/08 05:02:48;;;;;;;44.25;25.27;;;2.60;99.90;;;;;;5097263;27;20027;-76
2023/12/08 05:05:14;;;;;;;42.58;23.23;;;2.60;99.90;;;;;;5075730;28;20036;-78
2023/12/08 05:07:40;;;;;;;41.72;23.00;;;2.60;99.90;;;;;;5092191;28;20161;-78
2023/12/08 05:10:07;;;;;;;42.05;23.50;;;2.70;99.90;;;;;;5074214;28;20039;-76
2023/12/08 05:12:33;;;;;;;46.27;25.60;;;2.70;99.90;;;;;;5076809;28;20042;-78
2023/12/08 05:14:59;;;;;;;42.92;22.83;;;2.70;99.90;;;;;;5073252;28;20485;-76
2023/12/08 05:17:26;;;;;;;46.63;24.17;;;2.70;99.90;;;;;;5098281;28;20054;-78
2023/12/08 05:19:52;;;;;;;47.85;26.50;;;2.70;99.90;;;;;;5067915;28;20055;-77
2023/12/08 05:22:19;;;;;;;47.85;26.05;;;2.70;99.90;;;;;;5076018;28;20032;-77
2023/12/08 05:24:45;;;;;;;49.33;26.42;;;2.70;99.90;;;;;;5060484;28;20039;-78
2023/12/08 05:27:11;;;;;;;52.72;29.50;;;2.70;99.90;;;;;;5091958;28;20035;-77
2023/12/08 05:29:38;;;;;;;61.00;31.70;;;2.70;99.90;;;;;;5101006;28;20406;-78
2023/12/08 05:32:04;;;;;;;58.53;31.58;;;2.70;99.90;;;;;;5058773;28;20032;-78
2023/12/08 05:34:31;;;;;;;55.38;29.00;;;2.70;99.90;;;;;;5096417;28;20039;-78
2023/12/08 05:36:57;;;;;;;64.50;33.03;;;2.70;99.90;;;;;;5109102;27;20039;-78
2023/12/08 05:39:24;;;;;;;56.10;29.48;;;2.70;99.90;;;;;;5070953;28;20028;-77
2023/12/08 05:41:50;;;;;;;53.60;27.40;;;2.70;99.90;;;;;;5095936;27;20059;-79
2023/12/08 05:44:16;;;;;;;69.13;36.75;;;2.70;99.90;;;;;;5079306;28;20398;-77
2023/12/08 05:46:43;;;;;;;60.17;32.85;;;2.70;99.90;;;;;;5071195;28;20042;-76
2023/12/08 05:49:09;;;;;;;57.47;29.17;;;2.80;99.90;;;;;;5095618;28;20023;-77
2023/12/08 05:51:35;;;;;;;62.28;30.80;;;2.80;99.90;;;;;;5080011;28;20044;-78
2023/12/08 05:54:03;;;;;;;55.88;27.35;;;2.80;99.90;;;;;;5094296;28;20043;-77
2023/12/08 05:56:29;;;;;;;60.85;32.53;;;2.80;99.90;;;;;;5082551;28;20039;-77
2023/12/08 05:58:55;;;;;;;60.03;30.07;;;2.80;99.90;;;;;;5068941;28;20028;-78
2023/12/08 06:01:22;;;;;;;65.45;32.63;;;2.80;99.90;;;;;;5069296;28;20263;-76
2023/12/08 06:03:48;;;;;;;59.85;29.67;;;2.80;99.90;;;;;;5083851;28;20043;-76
2023/12/08 06:06:15;;;;;;;64.28;29.80;;;2.80;99.90;;;;;;5071655;28;20059;-77
2023/12/08 06:08:41;;;;;;;69.88;33.90;;;2.80;99.90;;;;;;5108282;27;20061;-74
2023/12/08 06:11:08;;;;;;;61.17;30.90;;;2.80;99.90;;;;;;5081568;28;20413;-75
2023/12/08 06:13:34;;;;;;;59.97;29.80;;;2.80;99.90;;;;;;5081483;28;20028;-76
2023/12/08 06:16:01;;;;;;;60.45;28.67;;;2.80;99.90;;;;;;5066750;28;20047;-77
2023/12/08 06:18:27;;;;;;;54.85;26.02;;;2.90;99.90;;;;;;5073251;28;20035;-76
2023/12/08 06:20:53;;;;;;;63.35;29.98;;;2.80;99.90;;;;;;5105761;27;20040;-75
2023/12/08 06:23:19;;;;;;;68.82;33.50;;;2.90;99.90;;;;;;5068744;28;20036;-73
2023/12/08 06:25:46;;;;;;;77.93;36.03;;;2.90;99.90;;;;;;5088408;28;20395;-75
2023/12/08 06:28:13;;;;;;;63.13;30.00;;;2.90;99.90;;;;;;5071434;28;20685;-73
2023/12/08 06:30:39;;;;;;;65.15;33.05;;;2.90;99.90;;;;;;5090906;28;20023;-75
2023/12/08 06:33:05;;;;;;;71.43;34.08;;;2.90;99.90;;;;;;5076091;28;20047;-75
2023/12/08 06:35:31;;;;;;;66.70;31.33;;;2.90;99.90;;;;;;5084718;28;20031;-72
2023/12/08 06:37:58;;;;;;;69.93;34.13;;;2.90;99.90;;;;;;5061867;28;20040;-75
2023/12/08 06:40:25;;;;;;;66.30;31.10;;;2.90;99.90;;;;;;5084182;28;20020;-75
2023/12/08 06:42:51;;;;;;;65.82;29.30;;;2.90;99.90;;;;;;5070342;28;20463;-75
2023/12/08 06:45:18;;;;;;;61.67;28.85;;;2.90;99.90;;;;;;5064371;28;20515;-75
2023/12/08 06:47:44;;;;;;;65.18;29.85;;;2.90;99.90;;;;;;5074193;28;20391;-75
2023/12/08 06:50:10;;;;;;;54.70;26.25;;;2.90;99.90;;;;;;5073655;28;20035;-75
2023/12/08 06:52:37;;;;;;;58.13;26.60;;;2.90;99.90;;;;;;5066525;28;20039;-74
2023/12/08 06:55:03;;;;;;;77.93;34.90;;;3.00;99.90;;;;;;5069767;28;20051;-76
2023/12/08 06:57:30;;;;;;;69.43;31.95;;;3.00;99.90;;;;;;5108687;27;20371;-75
2023/12/08 06:59:57;;;;;;;67.63;29.80;;;3.00;99.90;;;;;;5053757;28;20043;-76
2023/12/08 07:02:24;;;;;;;66.68;30.75;;;3.00;99.90;;;;;;5066703;28;20028;-75
2023/12/08 07:04:50;;;;;;;67.60;29.33;;;3.00;99.90;;;;;;5091409;28;20063;-77
2023/12/08 07:07:16;;;;;;;67.88;30.95;;;3.00;99.90;;;;;;5106146;27;20055;-76
2023/12/08 07:09:43;;;;;;;64.03;31.08;;;3.00;99.90;;;;;;5067457;28;20028;-76
2023/12/08 07:12:09;;;;;;;74.13;31.08;;;3.10;99.90;;;;;;5073947;28;20036;-75
2023/12/08 07:14:35;;;;;;;81.60;33.65;;;3.10;99.90;;;;;;5089061;28;20044;-75
2023/12/08 07:17:02;;;;;;;82.10;35.97;;;3.10;99.90;;;;;;5055188;28;20040;-75
2023/12/08 07:19:29;;;;;;;71.63;31.42;;;3.10;99.90;;;;;;5083106;28;20035;-75
2023/12/08 07:21:55;;;;;;;68.78;31.27;;;3.10;99.90;;;;;;5094378;28;20035;-75
2023/12/08 07:24:21;;;;;;;75.43;33.38;;;3.10;99.90;;;;;;5073971;28;20047;-75
2023/12/08 07:26:48;;;;;;;78.30;32.22;;;3.10;99.90;;;;;;5093862;28;20036;-76
2023/12/08 07:29:14;;;;;;;75.32;34.22;;;3.10;99.90;;;;;;5079464;28;20039;-75
2023/12/08 07:31:40;;;;;;;74.38;31.83;;;3.10;99.90;;;;;;5090578;28;20052;-75
2023/12/08 07:34:06;;;;;;;80.22;32.95;;;3.10;99.90;;;;;;5079585;28;20612;-76
2023/12/08 07:36:33;;;;;;;79.00;33.08;;;3.10;99.90;;;;;;5073027;28;20028;-75
2023/12/08 07:39:00;;;;;;;75.25;32.35;;;3.10;99.90;;;;;;5082355;28;20028;-75
2023/12/08 07:41:26;;;;;;;72.50;30.75;;;3.10;99.90;;;;;;5074776;28;20040;-75
2023/12/08 07:43:54;;;;;;;76.05;31.75;;;3.10;99.90;;;;;;5076402;28;20062;-75
2023/12/08 07:46:23;;;;;;;82.88;33.33;;;3.10;99.90;;;;;;5056116;28;20035;-74
2023/12/08 07:48:49;;;;;;;87.93;35.80;;;3.20;99.90;;;;;;5076262;28;20058;-75
2023/12/08 07:51:16;;;;;;;84.18;33.33;;;3.20;99.90;;;;;;5069309;28;20039;-75
2023/12/08 07:53:42;;;;;;;76.88;32.15;;;3.20;99.90;;;;;;5073730;28;20044;-75
2023/12/08 07:56:09;;;;;;;76.18;33.00;;;3.20;99.90;;;;;;5056972;28;20042;-76
2023/12/08 07:58:35;;;;;;;77.90;32.08;;;3.20;99.90;;;;;;5095600;28;20437;-76
2023/12/08 08:01:03;;;;;;;84.90;33.92;;;3.20;99.90;;;;;;5077594;28;20402;-75
2023/12/08 08:03:29;;;;;;;81.20;32.13;;;3.20;99.90;;;;;;5071304;28;20039;-75
2023/12/08 08:05:56;;;;;;;79.30;33.72;;;3.30;99.90;;;;;;5077977;28;20035;-75
2023/12/08 08:08:22;;;;;;;95.22;36.67;;;3.30;99.90;;;;;;5077545;28;20040;-75
2023/12/08 08:10:48;;;;;;;84.93;35.42;;;3.30;99.90;;;;;;5080105;28;20044;-75
2023/12/08 08:13:15;;;;;;;100.57;39.92;;;3.30;99.90;;;;;;5077538;28;20621;-75
2023/12/08 08:15:41;;;;;;;93.65;36.53;;;3.30;99.90;;;;;;5084210;28;20046;-75
2023/12/08 08:18:07;;;;;;;83.90;34.47;;;3.30;99.90;;;;;;5084348;28;20494;-75
2023/12/08 08:20:34;;;;;;;84.63;33.45;;;3.30;99.90;;;;;;5096422;28;20031;-74
2023/12/08 08:23:00;;;;;;;94.18;35.13;;;3.40;99.90;;;;;;5075960;28;20513;-75
2023/12/08 08:25:26;;;;;;;95.00;37.03;;;3.40;99.90;;;;;;5071462;28;20051;-75
2023/12/08 08:27:53;;;;;;;81.47;32.50;;;3.40;99.90;;;;;;5077652;28;20042;-74
2023/12/08 08:30:20;;;;;;;74.93;30.40;;;3.40;99.90;;;;;;5080738;28;20491;-76
2023/12/08 08:32:46;;;;;;;79.65;31.45;;;3.50;99.90;;;;;;5077361;28;20391;-75
2023/12/08 08:35:14;;;;;;;76.35;31.35;;;3.50;99.90;;;;;;5091574;28;20035;-75
2023/12/08 08:37:40;;;;;;;83.30;33.35;;;3.50;99.90;;;;;;5093486;28;20107;-76
2023/12/08 08:40:07;;;;;;;78.05;30.92;;;3.50;99.90;;;;;;5074855;28;20028;-75
2023/12/08 08:42:33;;;;;;;71.90;28.73;;;3.50;99.90;;;;;;5080401;28;20522;-74
2023/12/08 08:45:00;;;;;;;81.47;32.42;;;3.60;99.90;;;;;;5092108;28;20020;-75
2023/12/08 08:47:26;;;;;;;74.15;29.58;;;3.60;99.90;;;;;;5077338;28;20043;-76
2023/12/08 08:49:52;;;;;;;85.85;31.73;;;3.60;99.90;;;;;;5069245;28;20031;-75
2023/12/08 08:52:19;;;;;;;93.88;35.70;;;3.60;99.90;;;;;;5083656;27;20035;-75
2023/12/08 08:54:46;;;;;;;83.03;32.90;;;3.60;99.90;;;;;;5053042;28;20435;-75
2023/12/08 08:57:13;;;;;;;92.40;34.85;;;3.70;99.90;;;;;;5077742;28;20036;-75
2023/12/08 08:59:39;;;;;;;95.30;36.78;;;3.70;99.90;;;;;;5077201;28;20035;-75
2023/12/08 09:02:05;;;;;;;93.70;35.05;;;3.70;99.90;;;;;;5050169;28;20387;-75
2023/12/08 09:04:31;;;;;;;102.43;38.53;;;3.70;99.90;;;;;;5107371;27;20086;-74
2023/12/08 09:06:58;;;;;;;83.95;33.60;;;3.70;99.90;;;;;;5089795;28;20040;-75
2023/12/08 09:09:24;;;;;;;89.22;36.13;;;3.80;99.90;;;;;;5075758;28;20034;-74
2023/12/08 09:11:50;;;;;;;89.95;34.63;;;3.80;99.90;;;;;;5088393;28;20047;-75
2023/12/08 09:14:17;;;;;;;83.57;33.25;;;3.80;99.90;;;;;;5075878;28;20032;-76
2023/12/08 09:16:44;;;;;;;87.25;33.30;;;3.80;99.90;;;;;;5055980;28;20035;-76
2023/12/08 09:19:10;;;;;;;78.63;30.98;;;3.80;99.90;;;;;;5077685;28;20492;-75
2023/12/08 09:21:37;;;;;;;85.22;33.03;;;3.90;99.90;;;;;;5093794;28;20042;-75
2023/12/08 09:24:03;;;;;;;82.70;30.15;;;3.90;99.90;;;;;;5077656;28;20047;-76
2023/12/08 09:26:30;;;;;;;75.80;30.02;;;3.90;99.90;;;;;;5075639;28;20032;-75
2023/12/08 09:28:56;;;;;;;84.78;32.35;;;3.90;99.90;;;;;;5072753;28;20035;-76
2023/12/08 09:31:22;;;;;;;87.10;33.22;;;3.90;99.90;;;;;;5054199;28;20459;-76
2023/12/08 09:33:49;;;;;;;81.82;31.80;;;4.00;99.90;;;;;;5074025;28;20035;-76
2023/12/08 09:36:16;;;;;;;79.75;32.13;;;4.00;99.90;;;;;;5071408;28;20035;-75
2023/12/08 09:38:42;;;;;;;79.95;31.00;;;4.00;99.90;;;;;;5058606;28;20475;-76
2023/12/08 09:41:09;;;;;;;86.05;30.75;;;4.00;99.90;;;;;;5055865;28;20031;-76
2023/12/08 09:43:46;;;;;;;84.30;31.17;;;4.00;99.90;;;;;;5107175;27;20027;-75
2023/12/08 09:46:14;;;;;;;82.68;31.55;;;4.00;99.90;;;;;;5093402;28;20036;-76
2023/12/08 09:48:45;;;;;;;75.18;30.05;;;4.10;99.90;;;;;;5073791;28;20046;-76
2023/12/08 09:51:17;;;;;;;82.68;30.88;;;4.10;99.90;;;;;;5079531;28;20047;-74
2023/12/08 09:53:45;;;;;;;81.22;29.88;;;4.10;99.90;;;;;;5069084;28;20038;-75
2023/12/08 09:56:13;;;;;;;79.65;29.50;;;4.10;99.90;;;;;;5070403;28;20047;-76
2023/12/08 09:58:40;;;;;;;72.50;29.23;;;4.10;99.90;;;;;;5081175;28;20596;-76
2023/12/08 10:01:09;;;;;;;85.20;30.80;;;4.20;99.90;;;;;;5070070;28;20482;-76
2023/12/08 10:03:36;;;;;;;77.88;28.55;;;4.20;99.90;;;;;;5061846;28;20506;-75
2023/12/08 10:06:02;;;;;;;82.15;29.48;;;4.20;99.90;;;;;;5068875;28;20036;-76
2023/12/08 10:08:30;;;;;;;87.53;32.50;;;4.30;99.90;;;;;;5091212;28;20036;-76
2023/12/08 10:10:56;;;;;;;84.82;32.25;;;4.30;99.90;;;;;;5071051;28;20060;-75
2023/12/08 10:13:23;;;;;;;83.55;31.25;;;4.40;99.90;;;;;;5106578;27;20035;-75
2023/12/08 10:15:49;;;;;;;81.35;29.52;;;4.40;99.90;;;;;;5069930;28;20051;-76
2023/12/08 10:18:23;;;;;;;84.47;30.23;;;4.40;99.90;;;;;;5075941;28;20498;-76
2023/12/08 10:20:50;;;;;;;85.45;30.55;;;4.40;99.90;;;;;;5057626;28;20054;-76
2023/12/08 10:23:23;;;;;;;81.40;29.58;;;4.50;99.90;;;;;;5077091;28;20372;-77
2023/12/08 10:25:49;;;;;;;91.38;30.77;;;4.50;99.90;;;;;;5076486;28;20031;-76
2023/12/08 10:28:15;;;;;;;86.43;30.10;;;4.50;99.90;;;;;;5110893;27;20059;-75
2023/12/08 10:30:49;;;;;;;93.13;31.55;;;4.50;99.90;;;;;;5072968;28;20040;-74
2023/12/08 10:33:23;;;;;;;86.07;31.00;;;4.60;99.90;;;;;;5054232;28;20513;-76
2023/12/08 10:35:50;;;;;;;76.80;26.88;;;4.60;99.90;;;;;;5090651;28;20047;-75
2023/12/08 10:38:18;;;;;;;97.22;33.78;;;4.70;99.90;;;;;;5075306;28;20036;-76
2023/12/08 10:40:49;;;;;;;87.70;29.90;;;4.70;99.90;;;;;;5072952;28;20047;-76
2023/12/08 10:43:22;;;;;;;79.43;28.52;;;4.70;99.90;;;;;;5095557;28;20035;-75
2023/12/08 10:45:52;;;;;;;109.00;35.42;;;4.80;99.90;;;;;;5061201;28;20043;-75
2023/12/08 10:48:22;;;;;;;103.60;33.15;;;4.80;99.90;;;;;;5078540;28;20032;-75
2023/12/08 10:50:51;;;;;;;104.53;33.88;;;4.80;99.90;;;;;;5094659;28;20040;-75
2023/12/08 10:53:19;;;;;;;103.78;32.25;;;4.80;99.90;;;;;;5092245;28;20036;-76
2023/12/08 10:56:06;;;;;;;93.72;30.75;;;4.90;99.90;;;;;;5070443;28;20056;-75
2023/12/08 10:58:34;;;;;;;119.38;34.65;;;4.90;99.90;;;;;;5081446;28;20063;-76
2023/12/08 11:01:03;;;;;;;96.10;31.02;;;4.90;99.90;;;;;;5067002;28;20031;-75
2023/12/08 11:03:34;;;;;;;98.35;31.70;;;5.00;99.90;;;;;;5050071;28;20036;-75
2023/12/08 11:06:11;;;;;;;98.63;30.25;;;5.00;99.90;;;;;;5069466;28;20039;-75
2023/12/08 11:08:44;;;;;;;98.18;30.90;;;5.00;99.90;;;;;;5077693;28;20040;-75
2023/12/08 11:11:12;;;;;;;110.03;33.05;;;5.00;99.90;;;;;;5076510;28;20702;-74
2023/12/08 11:13:45;;;;;;;135.80;37.33;;;5.10;99.90;;;;;;5072036;28;20403;-76
2023/12/08 11:16:57;;;;;;;135.75;38.45;;;5.10;99.90;;;;;;5083261;28;20505;-75
2023/12/08 11:19:25;;;;;;;161.70;41.30;;;5.10;99.90;;;;;;5004982;28;20072;-76
2023/12/08 11:21:53;;;;;;;170.15;41.80;;;5.20;99.90;;;;;;5004768;28;20513;-75
2023/12/08 11:24:20;;;;;;;156.40;41.03;;;5.20;99.90;;;;;;5021975;28;20045;-76
2023/12/08 11:26:57;;;;;;;147.07;39.42;;;5.20;99.90;;;;;;5005520;28;20045;-76
2023/12/08 11:29:36;;;;;;;144.13;36.85;;;5.20;99.90;;;;;;4994856;28;20048;-76
2023/12/08 11:32:35;;;;;;;147.45;39.97;;;5.30;99.90;;;;;;4988064;28;20080;-74
2023/12/08 11:35:04;;;;;;;146.27;36.72;;;5.30;99.90;;;;;;5004459;28;20049;-77
2023/12/08 11:37:34;;;;;;;126.97;33.60;;;5.30;99.90;;;;;;4990868;28;20052;-74
2023/12/08 11:40:06;;;;;;;142.25;39.08;;;5.40;99.90;;;;;;4989377;28;20463;-74
2023/12/08 11:42:35;;;;;;;146.02;35.92;;;5.40;99.90;;;;;;5020594;28;20511;-73
2023/12/08 11:45:02;;;;;;;151.02;39.10;;;5.50;99.90;;;;;;5005578;28;20033;-78
2023/12/08 11:47:30;;;;;;;140.32;38.60;;;5.50;99.90;;;;;;5006241;28;20053;-77
2023/12/08 11:49:57;;;;;;;148.13;39.95;;;5.50;99.90;;;;;;5005828;28;20073;-74
2023/12/08 11:52:27;;;;;;;157.70;40.35;;;5.50;99.90;;;;;;5008171;28;20045;-74
2023/12/08 11:55:00;;;;;;;149.30;38.47;;;5.60;99.90;;;;;;5072936;28;20046;-74
2023/12/08 11:57:28;;;;;;;142.05;35.47;;;5.70;99.90;;;;;;5062205;28;20501;-75
2023/12/08 11:59:55;;;;;;;144.00;37.65;;;5.70;99.90;;;;;;5089483;28;20509;-74
2023/12/08 12:02:24;;;;;;;130.48;33.97;;;5.70;99.90;;;;;;5081630;27;20028;-74
2023/12/08 12:04:51;;;;;;;132.35;34.75;;;5.80;99.90;;;;;;5081007;28;20036;-75
2023/12/08 12:07:21;;;;;;;147.63;36.85;;;5.80;99.90;;;;;;5070474;28;20291;-74
2023/12/08 12:09:55;;;;;;;135.02;35.55;;;5.90;99.90;;;;;;5108496;27;20040;-73
2023/12/08 12:12:29;;;;;;;137.68;34.13;;;5.90;99.90;;;;;;5058223;28;20032;-73
2023/12/08 12:14:56;;;;;;;213.30;43.47;;;5.90;99.90;;;;;;5077523;28;20406;-74
2023/12/08 12:17:23;;;;;;;152.63;36.40;;;5.90;99.90;;;;;;5109269;27;20344;-74
2023/12/08 12:19:50;;;;;;;140.93;34.20;;;6.00;99.90;;;;;;5084015;28;20406;-75
2023/12/08 12:22:17;;;;;;;135.68;33.10;;;6.00;99.90;;;;;;5078508;28;20038;-74
2023/12/08 12:24:43;;;;;;;166.38;37.15;;;6.00;99.90;;;;;;5080377;28;20039;-74
2023/12/08 12:27:09;;;;;;;131.30;33.53;;;6.00;99.90;;;;;;5081890;28;20024;-74
2023/12/08 12:29:36;;;;;;;122.70;33.45;;;6.00;99.90;;;;;;5083768;28;20044;-73
2023/12/08 12:32:05;;;;;;;127.25;32.72;;;6.10;99.90;;;;;;5081385;28;20028;-74
2023/12/08 12:34:31;;;;;;;152.27;37.20;;;6.10;99.90;;;;;;5072975;28;20036;-75
2023/12/08 12:36:58;;;;;;;192.23;44.75;;;6.10;99.90;;;;;;5078054;28;20036;-75